createdAt,value
2023-02-12T00:00:56.464Z,102434.03
2023-02-12T00:05:53.126Z,102441.97
2023-02-12T00:10:49.526Z,102440.34
2023-02-12T00:15:45.915Z,102431.56
2023-02-12T00:20:42.296Z,102436.06
2023-02-12T00:25:41.946Z,102441.47
2023-02-12T00:30:38.379Z,102447.66
2023-02-12T00:35:34.798Z,102453.88
2023-02-12T00:40:31.124Z,102456.59
2023-02-12T00:45:27.525Z,102454.09
2023-02-12T00:50:23.941Z,102464.78
2023-02-12T00:55:20.397Z,102471.88
2023-02-12T01:00:16.989Z,102478.03
2023-02-12T01:05:13.457Z,102476.31
2023-02-12T01:10:10.088Z,102479.78
2023-02-12T01:15:06.814Z,102478.16
2023-02-12T01:20:05.767Z,102486.97
2023-02-12T01:25:03.333Z,102486.97
2023-02-12T01:29:59.718Z,102492.34
2023-02-12T01:34:56.181Z,102497.66
2023-02-12T01:39:52.628Z,102494.13
2023-02-12T01:45:13.896Z,102501.13
2023-02-12T01:50:17.169Z,102508.13
2023-02-12T01:55:13.933Z,102504.25
2023-02-12T02:00:14.626Z,102507.19
2023-02-12T02:05:15.423Z,102492.28
2023-02-12T02:10:12.219Z,102499.41
2023-02-12T02:15:09.318Z,102498.56
2023-02-12T02:20:33.554Z,102494.13
2023-02-12T02:26:13.409Z,102497.22
2023-02-12T02:31:22.517Z,102496.56
2023-02-12T02:36:54.455Z,102488.72
2023-02-12T02:41:59.175Z,102489.47
2023-02-12T02:46:57.749Z,102475.06
2023-02-12T02:52:01.377Z,102474.69
2023-02-12T02:57:07.990Z,102467.84
2023-02-12T03:02:14.526Z,102467.22
2023-02-12T03:07:21.786Z,102466.69
2023-02-12T03:12:41.393Z,102460.78
2023-02-12T03:17:43.314Z,102458.88
2023-02-12T03:22:46.880Z,102458.88
2023-02-12T03:27:57.011Z,102460.34
2023-02-12T03:33:15.104Z,102457.53
2023-02-12T03:38:25.112Z,102458.94
2023-02-12T03:43:44.575Z,102459.63
2023-02-12T03:48:47.250Z,102448.81
2023-02-12T03:53:44.189Z,102455.59
2023-02-12T03:58:42.874Z,102457.78
2023-02-12T04:03:39.567Z,102470.19
2023-02-12T04:08:35.890Z,102483.50
2023-02-12T04:14:05.524Z,102487.09
2023-02-12T04:19:01.999Z,102500.25
2023-02-12T04:24:26.073Z,102513.47
2023-02-12T04:29:34.985Z,102532.19
2023-02-12T04:35:11.670Z,102539.91
2023-02-12T04:40:13.519Z,102550.38
2023-02-12T04:45:12.399Z,102562.84
2023-02-12T04:50:09.308Z,102563.69
2023-02-12T04:55:05.992Z,102575.81
2023-02-12T05:00:05.719Z,102570.44
2023-02-12T05:05:02.102Z,102568.63
2023-02-12T05:09:58.425Z,102587.50
2023-02-12T05:14:54.720Z,102586.88
2023-02-12T05:19:51.306Z,102589.56
2023-02-12T05:24:47.784Z,102588.63
2023-02-12T05:29:44.176Z,102593.69
2023-02-12T05:34:40.620Z,102598.00
2023-02-12T05:39:36.907Z,102598.88
2023-02-12T05:44:33.244Z,102596.63
2023-02-12T05:49:29.725Z,102589.84
2023-02-12T05:54:26.089Z,102602.28
2023-02-12T05:59:23.414Z,102608.56
2023-02-12T06:04:23.586Z,102611.28
2023-02-12T06:09:20.135Z,102612.88
2023-02-12T06:14:19.423Z,102620.63
2023-02-12T06:19:16.285Z,102622.38
2023-02-12T06:24:13.864Z,102633.25
2023-02-12T06:29:10.541Z,102629.00
2023-02-12T06:34:10.757Z,102638.69
2023-02-12T06:39:07.605Z,102642.31
2023-02-12T06:44:05.041Z,102652.91
2023-02-12T06:49:01.438Z,102662.63
2023-02-12T06:53:58.334Z,102675.03
2023-02-12T06:58:57.263Z,102686.47
2023-02-12T07:03:59.247Z,102689.94
2023-02-12T07:08:56.963Z,102706.72
2023-02-12T07:13:53.888Z,102706.72
2023-02-12T07:18:50.265Z,102729.59
2023-02-12T07:23:51.251Z,102737.53
2023-02-12T07:28:48.986Z,102751.66
2023-02-12T07:33:45.546Z,102763.09
2023-02-12T07:38:42.416Z,102780.69
2023-02-12T07:43:43.650Z,102785.06
2023-02-12T07:48:40.432Z,102796.53
2023-02-12T07:53:38.156Z,102811.41
2023-02-12T07:58:34.686Z,102822.75
2023-02-12T08:03:30.993Z,102820.13
2023-02-12T08:08:27.294Z,102822.63
2023-02-12T08:13:23.841Z,102828.59
2023-02-12T08:18:20.118Z,102840.78
2023-02-12T08:23:16.414Z,102852.88
2023-02-12T08:28:12.772Z,102859.16
2023-02-12T08:33:09.085Z,102863.41
2023-02-12T08:38:06.808Z,102864.41
2023-02-12T08:43:03.123Z,102867.78
2023-02-12T08:47:59.512Z,102862.28
2023-02-12T08:52:55.913Z,102879.91
2023-02-12T08:57:57.757Z,102872.09
2023-02-12T09:02:54.120Z,102866.53
2023-02-12T09:07:53.438Z,102864.75
2023-02-12T09:12:50.184Z,102853.91
2023-02-12T09:17:46.612Z,102855.97
2023-02-12T09:22:42.977Z,102850.19
2023-02-12T09:27:39.314Z,102854.66
2023-02-12T09:32:35.655Z,102838.94
2023-02-12T09:37:32.021Z,102814.16
2023-02-12T09:42:43.041Z,102778.59
2023-02-12T09:47:47.536Z,102764.13
2023-02-12T09:52:44.330Z,102749.50
2023-02-12T09:57:42.222Z,102731.84
2023-02-12T10:02:40.159Z,102698.00
2023-02-12T10:08:15.480Z,102686.03
2023-02-12T10:13:39.269Z,102671.91
2023-02-12T10:18:44.484Z,102654.63
2023-02-12T10:24:38.255Z,102647.69
2023-02-12T10:29:39.462Z,102645.97
2023-02-12T10:34:37.169Z,102650.91
2023-02-12T10:39:41.326Z,102649.53
2023-02-12T10:44:38.767Z,102640.63
2023-02-12T10:49:35.300Z,102626.03
2023-02-12T10:54:58.006Z,102636.53
2023-02-12T10:59:59.451Z,102633.44
2023-02-12T11:04:58.038Z,102625.25
2023-02-12T11:09:55.446Z,102623.47
2023-02-12T11:14:55.168Z,102620.41
2023-02-12T11:20:16.357Z,102616.97
2023-02-12T11:25:16.798Z,102621.59
2023-02-12T11:30:18.705Z,102620.63
2023-02-12T11:35:18.920Z,102609.16
2023-02-12T11:40:24.822Z,102609.25
2023-02-12T11:45:25.100Z,102609.63
2023-02-12T11:50:46.669Z,102600.19
2023-02-12T11:55:54.910Z,102593.28
2023-02-12T12:00:58.746Z,102595.00
2023-02-12T12:06:01.453Z,102596.19
2023-02-12T12:11:11.487Z,102595.53
2023-02-12T12:16:52.941Z,102599.44
2023-02-12T12:22:02.575Z,102587.84
2023-02-12T12:27:14.295Z,102586.63
2023-02-12T12:32:14.932Z,102586.19
2023-02-12T12:37:24.766Z,102582.22
2023-02-12T12:42:46.549Z,102572.13
2023-02-12T12:47:54.745Z,102560.50
2023-02-12T12:53:18.613Z,102547.16
2023-02-12T12:58:26.136Z,102542.75
2023-02-12T13:03:37.703Z,102535.88
2023-02-12T13:08:52.078Z,102523.31
2023-02-12T13:13:53.606Z,102523.53
2023-02-12T13:19:24.001Z,102519.81
2023-02-12T13:24:49.854Z,102513.53
2023-02-12T13:30:04.125Z,102512.50
2023-02-12T13:35:02.104Z,102512.31
2023-02-12T13:40:02.940Z,102517.03
2023-02-12T13:45:25.723Z,102518.75
2023-02-12T13:50:48.962Z,102518.25
2023-02-12T13:56:11.820Z,102519.38
2023-02-12T14:01:11.664Z,102508.53
2023-02-12T14:06:11.234Z,102516.00
2023-02-12T14:11:16.139Z,102519.28
2023-02-12T14:16:29.950Z,102517.84
2023-02-12T14:21:29.640Z,102517.50
2023-02-12T14:26:26.200Z,102514.47
2023-02-12T14:31:30.156Z,102521.13
2023-02-12T14:36:32.892Z,102523.53
2023-02-12T14:41:38.513Z,102512.25
2023-02-12T14:46:43.288Z,102515.03
2023-02-12T14:52:05.958Z,102509.38
2023-02-12T14:57:08.694Z,102507.13
2023-02-12T15:02:06.481Z,102503.44
2023-02-12T15:07:14.270Z,102509.50
2023-02-12T15:12:31.280Z,102505.72
2023-02-12T15:17:34.906Z,102507.28
2023-02-12T15:22:40.361Z,102503.91
2023-02-12T15:27:37.570Z,102506.25
2023-02-12T15:32:37.793Z,102502.69
2023-02-12T15:37:34.480Z,102499.59
2023-02-12T15:42:37.745Z,102497.72
2023-02-12T15:47:34.726Z,102503.78
2023-02-12T15:52:35.999Z,102502.00
2023-02-12T15:57:32.984Z,102501.28
2023-02-12T16:02:33.054Z,102499.75
2023-02-12T16:07:34.692Z,102509.69
2023-02-12T16:12:34.443Z,102501.84
2023-02-12T16:17:34.259Z,102505.59
2023-02-12T16:22:39.201Z,102507.44
2023-02-12T16:27:35.900Z,102506.63
2023-02-12T16:32:41.585Z,102505.19
2023-02-12T16:37:37.917Z,102510.00
2023-02-12T16:42:34.364Z,102507.50
2023-02-12T16:47:30.977Z,102503.28
2023-02-12T16:52:41.049Z,102506.00
2023-02-12T16:57:37.473Z,102509.78
2023-02-12T17:02:36.244Z,102521.59
2023-02-12T17:07:33.925Z,102528.59
2023-02-12T17:12:30.488Z,102527.16
2023-02-12T17:17:26.988Z,102517.56
2023-02-12T17:22:26.084Z,102534.25
2023-02-12T17:27:22.635Z,102534.31
2023-02-12T17:32:19.143Z,102537.91
2023-02-12T17:37:15.832Z,102550.16
2023-02-12T17:42:12.195Z,102555.09
2023-02-12T17:47:08.580Z,102562.28
2023-02-12T17:52:07.337Z,102556.50
2023-02-12T17:57:04.165Z,102561.78
2023-02-12T18:02:00.631Z,102556.53
2023-02-12T18:06:57.570Z,102558.81
2023-02-12T18:11:54.061Z,102552.13
2023-02-12T18:16:50.446Z,102558.94
2023-02-12T18:21:47.670Z,102551.50
2023-02-12T18:26:44.953Z,102549.53
2023-02-12T18:31:41.332Z,102550.56
2023-02-12T18:36:37.810Z,102548.97
2023-02-12T18:41:35.795Z,102541.78
2023-02-12T18:46:32.645Z,102538.63
2023-02-12T18:51:32.679Z,102539.44
2023-02-12T18:56:35.516Z,102545.38
2023-02-12T19:01:33.385Z,102553.38
2023-02-12T19:06:31.996Z,102555.28
2023-02-12T19:11:29.009Z,102549.31
2023-02-12T19:16:26.082Z,102550.03
2023-02-12T19:21:26.100Z,102550.75
2023-02-12T19:26:23.943Z,102551.50
2023-02-12T19:31:23.397Z,102544.38
2023-02-12T19:36:20.797Z,102552.47
2023-02-12T19:41:20.580Z,102557.63
2023-02-12T19:46:19.289Z,102556.72
2023-02-12T19:51:21.229Z,102555.28
2023-02-12T19:56:17.993Z,102551.94
2023-02-12T20:01:17.841Z,102556.44
2023-02-12T20:06:18.214Z,102551.13
2023-02-12T20:11:18.099Z,102552.00
2023-02-12T20:16:17.624Z,102546.97
2023-02-12T20:21:18.937Z,102554.16
2023-02-12T20:26:16.737Z,102561.13
2023-02-12T20:31:15.155Z,102558.28
2023-02-12T20:36:12.711Z,102560.31
2023-02-12T20:41:10.172Z,102558.78
2023-02-12T20:46:25.130Z,102559.81
2023-02-12T20:51:24.350Z,102560.81
2023-02-12T20:56:26.738Z,102558.28
2023-02-12T21:01:25.915Z,102555.69
2023-02-12T21:06:24.140Z,102562.72
2023-02-12T21:11:23.797Z,102550.25
2023-02-12T21:16:31.469Z,102561.69
2023-02-12T21:21:33.400Z,102551.78
2023-02-12T21:26:31.677Z,102550.94
2023-02-12T21:31:30.854Z,102546.03
2023-02-12T21:36:30.539Z,102547.03
2023-02-12T21:41:29.926Z,102551.13
2023-02-12T21:46:27.225Z,102552.19
2023-02-12T21:51:26.490Z,102550.38
2023-02-12T21:56:23.522Z,102552.31
2023-02-12T22:01:23.086Z,102551.56
2023-02-12T22:06:22.287Z,102550.84
2023-02-12T22:11:19.448Z,102549.03
2023-02-12T22:16:24.236Z,102543.00
2023-02-12T22:21:21.860Z,102539.47
2023-02-12T22:26:24.533Z,102531.31
2023-02-12T22:31:24.159Z,102547.19
2023-02-12T22:36:27.335Z,102545.50
2023-02-12T22:41:23.947Z,102543.69
2023-02-12T22:46:20.689Z,102536.50
2023-02-12T22:51:21.656Z,102537.47
2023-02-12T22:56:18.817Z,102553.28
2023-02-12T23:01:18.218Z,102551.31
2023-02-12T23:06:17.473Z,102547.19
2023-02-12T23:11:13.816Z,102541.09
2023-02-12T23:16:10.237Z,102528.72
2023-02-12T23:21:06.631Z,102528.50
2023-02-12T23:26:03.180Z,102513.78
2023-02-12T23:31:00.052Z,102517.53
2023-02-12T23:35:56.690Z,102518.56
2023-02-12T23:40:53.093Z,102512.34
2023-02-12T23:45:49.620Z,102518.63
2023-02-12T23:50:54.120Z,102513.34
2023-02-12T23:55:51.358Z,102521.41
